PWSweather.com
Personal Weather Stations
Station Observations
WESTON01
WestonSuperMareGB BS22 8RT

WestonSuperMareGB BS22 8RT

Lat: 51.351508, Lon: -2.933373

Elevation: 15

Station Type: Fine Offset WH1080

http://www.westonweather.co.uk

High Low Average
Temperature 64.3°F17.9°C 49.0°F9.4°C 55.5°F13.1°C
Dew Point 49.8°F9.9°C 42.6°F5.9°C 46.7°F8.2°C
Winds 18.7 mph 30.1 kmh 1.9 mph 3.1 kmh 9.0 mph WNW14.5 kmh WNW
Wind Gusts 31.8 mph51.2 kmh 5.4 mph8.7 kmh 14.0 mph22.5 kmh
Humidity 83% 55% 73%
Pressure 29.96 in1014.6 mb 29.84 in1010.5 mb -
Precipitation 0.29 in7.4 mm - -
Hour Temp Dew Point Humidity Winds Wind Gusts Pressure Precip Precip Rate Daily Precip Total
12:00 AM 55.3°F12.9°C 44.9°F7.2°C 68% 8.1 mph WNW13.0 kmh WNW 14.3 mph23.0 kmh 29.93 in1013.5 mb 0.00 in0.0 mm 0.00 in0.0 mm 0.00 in0.0 mm
12:05 AM 55.1°F12.8°C 44.8°F7.1°C 68% 7.9 mph WNW12.7 kmh WNW 14.0 mph22.5 kmh 29.93 in1013.5 mb 0.00 in0.0 mm 0.00 in0.0 mm 0.00 in0.0 mm
12:10 AM 55.1°F12.8°C 45.1°F7.3°C 69% 9.2 mph WNW14.8 kmh WNW 14.0 mph22.5 kmh 29.90 in1012.5 mb 0.00 in0.0 mm 0.00 in0.0 mm 0.00 in0.0 mm
12:15 AM 55.1°F12.8°C 45.1°F7.3°C 69% 8.4 mph WNW13.5 kmh WNW 13.7 mph22.0 kmh 29.90 in1012.5 mb 0.00 in0.0 mm 0.00 in0.0 mm 0.00 in0.0 mm
12:20 AM 55.0°F12.8°C 45.0°F7.2°C 69% 7.8 mph W12.6 kmh W 16.1 mph25.9 kmh 29.90 in1012.5 mb 0.00 in0.0 mm 0.00 in0.0 mm 0.00 in0.0 mm
12:25 AM 54.8°F12.7°C 44.8°F7.1°C 69% 7.5 mph WNW12.1 kmh WNW 16.1 mph25.9 kmh 29.93 in1013.5 mb 0.00 in0.0 mm 0.00 in0.0 mm 0.00 in0.0 mm
12:30 AM 54.8°F12.7°C 44.8°F7.1°C 69% 7.6 mph NW12.2 kmh NW 14.0 mph22.5 kmh 29.93 in1013.5 mb 0.00 in0.0 mm 0.00 in0.0 mm 0.00 in0.0 mm
12:35 AM 54.8°F12.7°C 45.2°F7.3°C 70% 8.5 mph NW13.7 kmh NW 14.3 mph23.0 kmh 29.93 in1013.5 mb 0.00 in0.0 mm 0.00 in0.0 mm 0.00 in0.0 mm
12:40 AM 54.8°F12.7°C 45.2°F7.3°C 70% 8.3 mph W13.4 kmh W 14.3 mph23.0 kmh 29.93 in1013.5 mb 0.00 in0.0 mm 0.00 in0.0 mm 0.00 in0.0 mm
12:45 AM 54.8°F12.7°C 45.2°F7.3°C 70% 7.7 mph W12.4 kmh W 9.5 mph15.3 kmh 29.93 in1013.5 mb 0.00 in0.0 mm 0.00 in0.0 mm 0.00 in0.0 mm
12:50 AM 54.6°F12.6°C 45.0°F7.2°C 70% 8.1 mph W13.0 kmh W 10.7 mph17.2 kmh 29.93 in1013.5 mb 0.00 in0.0 mm 0.00 in0.0 mm 0.00 in0.0 mm
12:55 AM 54.6°F12.6°C 45.0°F7.2°C 70% 10.2 mph W16.4 kmh W 17.0 mph27.4 kmh 29.93 in1013.5 mb 0.00 in0.0 mm 0.00 in0.0 mm 0.00 in0.0 mm
01:00 AM 54.6°F12.6°C 45.4°F7.4°C 71% 10.3 mph WNW16.6 kmh WNW 17.0 mph27.4 kmh 29.93 in1013.5 mb 0.00 in0.0 mm 0.00 in0.0 mm 0.00 in0.0 mm
01:05 AM 54.6°F12.6°C 45.4°F7.4°C 71% 9.7 mph NW15.6 kmh NW 14.0 mph22.5 kmh 29.93 in1013.5 mb 0.00 in0.0 mm 0.00 in0.0 mm 0.00 in0.0 mm
01:10 AM 54.4°F12.4°C 45.2°F7.3°C 71% 9.3 mph NW15.0 kmh NW 13.7 mph22.0 kmh 29.93 in1013.5 mb 0.00 in0.0 mm 0.00 in0.0 mm 0.00 in0.0 mm
01:15 AM 54.4°F12.4°C 45.2°F7.3°C 71% 9.0 mph WNW14.5 kmh WNW 13.4 mph21.6 kmh 29.93 in1013.5 mb 0.00 in0.0 mm 0.00 in0.0 mm 0.00 in0.0 mm
01:20 AM 54.2°F12.3°C 45.0°F7.2°C 71% 9.1 mph W14.6 kmh W 13.4 mph21.6 kmh 29.93 in1013.5 mb 0.00 in0.0 mm 0.00 in0.0 mm 0.00 in0.0 mm
01:25 AM 54.2°F12.3°C 45.0°F7.2°C 71% 8.7 mph WNW14.0 kmh WNW 13.7 mph22.0 kmh 29.90 in1012.5 mb 0.00 in0.0 mm 0.00 in0.0 mm 0.00 in0.0 mm
01:30 AM 54.2°F12.3°C 45.0°F7.2°C 71% 8.8 mph NW14.2 kmh NW 17.6 mph28.3 kmh 29.90 in1012.5 mb 0.00 in0.0 mm 0.00 in0.0 mm 0.00 in0.0 mm
01:35 AM 54.0°F12.2°C 45.2°F7.3°C 72% 9.4 mph NW15.1 kmh NW 17.6 mph28.3 kmh 29.90 in1012.5 mb 0.00 in0.0 mm 0.00 in0.0 mm 0.00 in0.0 mm
01:40 AM 54.0°F12.2°C 45.2°F7.3°C 72% 8.4 mph WNW13.5 kmh WNW 17.6 mph28.3 kmh 29.90 in1012.5 mb 0.00 in0.0 mm 0.00 in0.0 mm 0.00 in0.0 mm
01:45 AM 53.9°F12.2°C 45.0°F7.2°C 72% 6.5 mph NW10.5 kmh NW 10.4 mph16.7 kmh 29.90 in1012.5 mb 0.00 in0.0 mm 0.00 in0.0 mm 0.00 in0.0 mm
01:50 AM 53.9°F12.2°C 45.0°F7.2°C 72% 6.3 mph WNW10.1 kmh WNW 9.2 mph14.8 kmh 29.90 in1012.5 mb 0.00 in0.0 mm 0.00 in0.0 mm 0.00 in0.0 mm
01:55 AM 53.9°F12.2°C 45.4°F7.4°C 73% 7.0 mph W11.3 kmh W 11.6 mph18.7 kmh 29.90 in1012.5 mb 0.00 in0.0 mm 0.00 in0.0 mm 0.00 in0.0 mm
02:00 AM 53.9°F12.2°C 45.4°F7.4°C 73% 9.0 mph WNW14.5 kmh WNW 13.4 mph21.6 kmh 29.90 in1012.5 mb 0.00 in0.0 mm 0.00 in0.0 mm 0.00 in0.0 mm
02:05 AM 53.7°F12.1°C 45.2°F7.3°C 73% 9.0 mph WNW14.5 kmh WNW 13.4 mph21.6 kmh 29.90 in1012.5 mb 0.00 in0.0 mm 0.00 in0.0 mm 0.00 in0.0 mm
02:10 AM 53.7°F12.1°C 45.2°F7.3°C 73% 9.3 mph WNW15.0 kmh WNW 13.4 mph21.6 kmh 29.90 in1012.5 mb 0.00 in0.0 mm 0.00 in0.0 mm 0.00 in0.0 mm
02:15 AM 53.7°F12.1°C 45.2°F7.3°C 73% 7.5 mph NW12.1 kmh NW 11.6 mph18.7 kmh 29.90 in1012.5 mb 0.00 in0.0 mm 0.00 in0.0 mm 0.00 in0.0 mm
02:20 AM 53.5°F11.9°C 45.1°F7.3°C 73% 7.3 mph NW11.7 kmh NW 10.4 mph16.7 kmh 29.90 in1012.5 mb 0.00 in0.0 mm 0.00 in0.0 mm 0.00 in0.0 mm
02:25 AM 53.5°F11.9°C 45.1°F7.3°C 73% 9.5 mph WNW15.3 kmh WNW 14.3 mph23.0 kmh 29.93 in1013.5 mb 0.00 in0.0 mm 0.00 in0.0 mm 0.00 in0.0 mm
02:30 AM 53.5°F11.9°C 45.4°F7.4°C 74% 9.0 mph WNW14.5 kmh WNW 14.3 mph23.0 kmh 29.93 in1013.5 mb 0.00 in0.0 mm 0.00 in0.0 mm 0.00 in0.0 mm
02:35 AM 53.3°F11.8°C 45.3°F7.4°C 74% 6.0 mph WNW9.7 kmh WNW 11.3 mph18.2 kmh 29.93 in1013.5 mb 0.00 in0.0 mm 0.00 in0.0 mm 0.00 in0.0 mm
02:40 AM 53.2°F11.8°C 45.1°F7.3°C 74% 5.1 mph NW8.2 kmh NW 8.6 mph13.8 kmh 29.90 in1012.5 mb 0.00 in0.0 mm 0.00 in0.0 mm 0.00 in0.0 mm
02:45 AM 53.2°F11.8°C 45.1°F7.3°C 74% 7.7 mph WNW12.4 kmh WNW 16.1 mph25.9 kmh 29.90 in1012.5 mb 0.00 in0.0 mm 0.00 in0.0 mm 0.00 in0.0 mm
02:50 AM 53.2°F11.8°C 45.1°F7.3°C 74% 8.1 mph WNW13.0 kmh WNW 16.1 mph25.9 kmh 29.90 in1012.5 mb 0.00 in0.0 mm 0.00 in0.0 mm 0.00 in0.0 mm
02:55 AM 53.2°F11.8°C 45.1°F7.3°C 74% 7.0 mph WNW11.3 kmh WNW 11.6 mph18.7 kmh 29.93 in1013.5 mb 0.00 in0.0 mm 0.00 in0.0 mm 0.00 in0.0 mm
03:00 AM 53.2°F11.8°C 45.1°F7.3°C 74% 6.1 mph WNW9.8 kmh WNW 11.3 mph18.2 kmh 29.93 in1013.5 mb 0.00 in0.0 mm 0.00 in0.0 mm 0.00 in0.0 mm
03:05 AM 53.0°F11.7°C 44.9°F7.2°C 74% 5.2 mph WNW8.4 kmh WNW 8.3 mph13.4 kmh 29.93 in1013.5 mb 0.00 in0.0 mm 0.00 in0.0 mm 0.00 in0.0 mm
03:10 AM 53.0°F11.7°C 45.3°F7.4°C 75% 6.7 mph WNW10.8 kmh WNW 8.6 mph13.8 kmh 29.93 in1013.5 mb 0.00 in0.0 mm 0.00 in0.0 mm 0.00 in0.0 mm
03:15 AM 53.0°F11.7°C 45.3°F7.4°C 75% 6.5 mph NW10.5 kmh NW 9.5 mph15.3 kmh 29.93 in1013.5 mb 0.00 in0.0 mm 0.00 in0.0 mm 0.00 in0.0 mm
03:20 AM 53.0°F11.7°C 45.3°F7.4°C 75% 6.3 mph NW10.1 kmh NW 9.5 mph15.3 kmh 29.93 in1013.5 mb 0.00 in0.0 mm 0.00 in0.0 mm 0.00 in0.0 mm
03:25 AM 53.0°F11.7°C 45.3°F7.4°C 75% 5.8 mph WNW9.3 kmh WNW 8.0 mph12.9 kmh 29.93 in1013.5 mb 0.00 in0.0 mm 0.00 in0.0 mm 0.00 in0.0 mm
03:30 AM 52.8°F11.6°C 45.1°F7.3°C 75% 6.4 mph WNW10.3 kmh WNW 8.3 mph13.4 kmh 29.93 in1013.5 mb 0.00 in0.0 mm 0.00 in0.0 mm 0.00 in0.0 mm
03:35 AM 52.8°F11.6°C 45.1°F7.3°C 75% 7.3 mph WNW11.7 kmh WNW 8.3 mph13.4 kmh 29.93 in1013.5 mb 0.00 in0.0 mm 0.00 in0.0 mm 0.00 in0.0 mm
03:40 AM 52.8°F11.6°C 45.1°F7.3°C 75% 7.6 mph NW12.2 kmh NW 15.8 mph25.4 kmh 29.93 in1013.5 mb 0.00 in0.0 mm 0.00 in0.0 mm 0.00 in0.0 mm
03:45 AM 52.8°F11.6°C 45.1°F7.3°C 75% 8.3 mph NW13.4 kmh NW 15.8 mph25.4 kmh 29.93 in1013.5 mb 0.00 in0.0 mm 0.00 in0.0 mm 0.00 in0.0 mm
03:50 AM 53.0°F11.7°C 45.3°F7.4°C 75% 8.5 mph WNW13.7 kmh WNW 14.0 mph22.5 kmh 29.93 in1013.5 mb 0.00 in0.0 mm 0.00 in0.0 mm 0.00 in0.0 mm
03:55 AM 52.8°F11.6°C 45.1°F7.3°C 75% 9.4 mph WNW15.1 kmh WNW 16.4 mph26.4 kmh 29.93 in1013.5 mb 0.00 in0.0 mm 0.00 in0.0 mm 0.00 in0.0 mm
04:00 AM 53.0°F11.7°C 45.3°F7.4°C 75% 9.6 mph WNW15.4 kmh WNW 16.4 mph26.4 kmh 29.93 in1013.5 mb 0.00 in0.0 mm 0.00 in0.0 mm 0.00 in0.0 mm
04:05 AM 53.0°F11.7°C 45.3°F7.4°C 75% 8.6 mph WNW13.8 kmh WNW 16.4 mph26.4 kmh 29.93 in1013.5 mb 0.00 in0.0 mm 0.00 in0.0 mm 0.00 in0.0 mm
04:10 AM 53.0°F11.7°C 45.3°F7.4°C 75% 7.6 mph NW12.2 kmh NW 11.6 mph18.7 kmh 29.93 in1013.5 mb 0.00 in0.0 mm 0.00 in0.0 mm 0.00 in0.0 mm
04:15 AM 53.0°F11.7°C 45.3°F7.4°C 75% 6.6 mph NW10.6 kmh NW 11.6 mph18.7 kmh 29.93 in1013.5 mb 0.00 in0.0 mm 0.00 in0.0 mm 0.00 in0.0 mm
04:20 AM 53.2°F11.8°C 45.8°F7.7°C 76% 7.1 mph NW11.4 kmh NW 11.3 mph18.2 kmh 29.93 in1013.5 mb 0.00 in0.0 mm 0.00 in0.0 mm 0.00 in0.0 mm
04:25 AM 53.2°F11.8°C 45.8°F7.7°C 76% 7.7 mph NW12.4 kmh NW 11.3 mph18.2 kmh 29.93 in1013.5 mb 0.00 in0.0 mm 0.00 in0.0 mm 0.00 in0.0 mm
04:35 AM 53.0°F11.7°C 45.6°F7.6°C 76% 7.5 mph NW12.1 kmh NW 10.0 mph16.1 kmh 29.93 in1013.5 mb 0.00 in0.0 mm 0.00 in0.0 mm 0.00 in0.0 mm
04:40 AM 53.2°F11.8°C 45.8°F7.7°C 76% 7.3 mph NW11.7 kmh NW 13.4 mph21.6 kmh 29.93 in1013.5 mb 0.00 in0.0 mm 0.00 in0.0 mm 0.00 in0.0 mm
04:45 AM 53.0°F11.7°C 45.6°F7.6°C 76% 8.4 mph WNW13.5 kmh WNW 17.6 mph28.3 kmh 29.93 in1013.5 mb 0.00 in0.0 mm 0.00 in0.0 mm 0.00 in0.0 mm
04:50 AM 53.0°F11.7°C 45.6°F7.6°C 76% 9.5 mph NW15.3 kmh NW 17.6 mph28.3 kmh 29.93 in1013.5 mb 0.00 in0.0 mm 0.00 in0.0 mm 0.00 in0.0 mm
04:55 AM 53.0°F11.7°C 45.6°F7.6°C 76% 9.3 mph NNW15.0 kmh NNW 14.9 mph24.0 kmh 29.93 in1013.5 mb 0.00 in0.0 mm 0.00 in0.0 mm 0.00 in0.0 mm
05:00 AM 53.0°F11.7°C 45.6°F7.6°C 76% 7.0 mph NW11.3 kmh NW 14.9 mph24.0 kmh 29.93 in1013.5 mb 0.00 in0.0 mm 0.00 in0.0 mm 0.00 in0.0 mm
05:05 AM 53.0°F11.7°C 45.6°F7.6°C 76% 7.1 mph WNW11.4 kmh WNW 14.3 mph23.0 kmh 29.93 in1013.5 mb 0.00 in0.0 mm 0.00 in0.0 mm 0.00 in0.0 mm
05:10 AM 52.8°F11.6°C 45.4°F7.4°C 76% 7.9 mph WNW12.7 kmh WNW 14.3 mph23.0 kmh 29.93 in1013.5 mb 0.00 in0.0 mm 0.00 in0.0 mm 0.00 in0.0 mm
05:15 AM 52.8°F11.6°C 45.4°F7.4°C 76% 7.4 mph NW11.9 kmh NW 10.7 mph17.2 kmh 29.93 in1013.5 mb 0.00 in0.0 mm 0.00 in0.0 mm 0.00 in0.0 mm
05:20 AM 52.8°F11.6°C 45.4°F7.4°C 76% 6.7 mph NW10.8 kmh NW 10.7 mph17.2 kmh 29.93 in1013.5 mb 0.00 in0.0 mm 0.00 in0.0 mm 0.00 in0.0 mm
05:25 AM 52.8°F11.6°C 45.1°F7.3°C 75% 6.5 mph NW10.5 kmh NW 14.6 mph23.5 kmh 29.93 in1013.5 mb 0.00 in0.0 mm 0.00 in0.0 mm 0.00 in0.0 mm
05:30 AM 52.8°F11.6°C 45.1°F7.3°C 75% 8.2 mph NW13.2 kmh NW 14.6 mph23.5 kmh 29.93 in1013.5 mb 0.00 in0.0 mm 0.00 in0.0 mm 0.00 in0.0 mm
05:35 AM 53.0°F11.7°C 45.3°F7.4°C 75% 9.7 mph NW15.6 kmh NW 13.4 mph21.6 kmh 29.93 in1013.5 mb 0.00 in0.0 mm 0.00 in0.0 mm 0.00 in0.0 mm
05:40 AM 53.0°F11.7°C 45.3°F7.4°C 75% 7.9 mph WNW12.7 kmh WNW 13.4 mph21.6 kmh 29.93 in1013.5 mb 0.00 in0.0 mm 0.00 in0.0 mm 0.00 in0.0 mm
05:45 AM 53.2°F11.8°C 45.4°F7.4°C 75% 7.9 mph W12.7 kmh W 11.6 mph18.7 kmh 29.93 in1013.5 mb 0.00 in0.0 mm 0.00 in0.0 mm 0.00 in0.0 mm
05:50 AM 53.2°F11.8°C 45.4°F7.4°C 75% 8.9 mph WNW14.3 kmh WNW 14.3 mph23.0 kmh 29.93 in1013.5 mb 0.00 in0.0 mm 0.00 in0.0 mm 0.00 in0.0 mm
05:55 AM 53.2°F11.8°C 45.4°F7.4°C 75% 7.2 mph WNW11.6 kmh WNW 14.3 mph23.0 kmh 29.93 in1013.5 mb 0.00 in0.0 mm 0.00 in0.0 mm 0.00 in0.0 mm
06:00 AM 53.3°F11.8°C 45.6°F7.6°C 75% 7.5 mph WNW12.1 kmh WNW 14.0 mph22.5 kmh 29.93 in1013.5 mb 0.00 in0.0 mm 0.00 in0.0 mm 0.00 in0.0 mm
06:05 AM 53.3°F11.8°C 45.6°F7.6°C 75% 8.9 mph WNW14.3 kmh WNW 14.0 mph22.5 kmh 29.93 in1013.5 mb 0.00 in0.0 mm 0.00 in0.0 mm 0.00 in0.0 mm
06:10 AM 53.7°F12.1°C 46.0°F7.8°C 75% 8.5 mph W13.7 kmh W 11.6 mph18.7 kmh 29.93 in1013.5 mb 0.00 in0.0 mm 0.00 in0.0 mm 0.00 in0.0 mm
06:15 AM 54.0°F12.2°C 46.3°F7.9°C 75% 9.7 mph WNW15.6 kmh WNW 15.8 mph25.4 kmh 29.93 in1013.5 mb 0.00 in0.0 mm 0.00 in0.0 mm 0.00 in0.0 mm
06:20 AM 54.6°F12.6°C 46.8°F8.2°C 75% 9.7 mph NW15.6 kmh NW 15.8 mph25.4 kmh 29.93 in1013.5 mb 0.00 in0.0 mm 0.00 in0.0 mm 0.00 in0.0 mm
06:25 AM 55.3°F12.9°C 47.5°F8.6°C 75% 7.4 mph NW11.9 kmh NW 10.7 mph17.2 kmh 29.93 in1013.5 mb 0.00 in0.0 mm 0.00 in0.0 mm 0.00 in0.0 mm
06:30 AM 55.5°F13.1°C 47.7°F8.7°C 75% 6.9 mph NW11.1 kmh NW 11.3 mph18.2 kmh 29.93 in1013.5 mb 0.00 in0.0 mm 0.00 in0.0 mm 0.00 in0.0 mm
06:35 AM 55.5°F13.1°C 47.3°F8.5°C 74% 6.9 mph NNW11.1 kmh NNW 11.3 mph18.2 kmh 29.93 in1013.5 mb 0.00 in0.0 mm 0.00 in0.0 mm 0.00 in0.0 mm
06:40 AM 55.7°F13.2°C 47.1°F8.4°C 73% 5.8 mph NW9.3 kmh NW 10.1 mph16.3 kmh 29.93 in1013.5 mb 0.00 in0.0 mm 0.00 in0.0 mm 0.00 in0.0 mm
06:45 AM 55.7°F13.2°C 47.1°F8.4°C 73% 7.2 mph NW11.6 kmh NW 11.3 mph18.2 kmh 29.93 in1013.5 mb 0.00 in0.0 mm 0.00 in0.0 mm 0.00 in0.0 mm
06:50 AM 55.8°F13.2°C 47.3°F8.5°C 73% 8.1 mph NW13.0 kmh NW 11.3 mph18.2 kmh 29.93 in1013.5 mb 0.00 in0.0 mm 0.00 in0.0 mm 0.00 in0.0 mm
06:55 AM 56.0°F13.3°C 47.5°F8.6°C 73% 6.5 mph NW10.5 kmh NW 10.4 mph16.7 kmh 29.93 in1013.5 mb 0.00 in0.0 mm 0.00 in0.0 mm 0.00 in0.0 mm
07:00 AM 56.0°F13.3°C 47.1°F8.4°C 72% 5.3 mph NW8.5 kmh NW 9.8 mph15.8 kmh 29.93 in1013.5 mb 0.00 in0.0 mm 0.00 in0.0 mm 0.00 in0.0 mm
07:05 AM 56.0°F13.3°C 47.1°F8.4°C 72% 6.1 mph WNW9.8 kmh WNW 10.7 mph17.2 kmh 29.93 in1013.5 mb 0.00 in0.0 mm 0.00 in0.0 mm 0.00 in0.0 mm
07:10 AM 56.0°F13.3°C 47.1°F8.4°C 72% 7.4 mph NW11.9 kmh NW 10.7 mph17.2 kmh 29.93 in1013.5 mb 0.00 in0.0 mm 0.00 in0.0 mm 0.00 in0.0 mm
07:15 AM 56.4°F13.6°C 47.1°F8.4°C 71% 7.5 mph NW12.1 kmh NW 13.4 mph21.6 kmh 29.93 in1013.5 mb 0.00 in0.0 mm 0.00 in0.0 mm 0.00 in0.0 mm
07:20 AM 56.8°F13.8°C 47.4°F8.6°C 71% 6.6 mph NW10.6 kmh NW 13.4 mph21.6 kmh 29.93 in1013.5 mb 0.00 in0.0 mm 0.00 in0.0 mm 0.00 in0.0 mm
07:25 AM 56.8°F13.8°C 47.4°F8.6°C 71% 6.2 mph NW10.0 kmh NW 11.3 mph18.2 kmh 29.93 in1013.5 mb 0.00 in0.0 mm 0.00 in0.0 mm 0.00 in0.0 mm
07:30 AM 56.9°F13.8°C 47.6°F8.7°C 71% 7.5 mph NW12.1 kmh NW 12.8 mph20.6 kmh 29.93 in1013.5 mb 0.00 in0.0 mm 0.00 in0.0 mm 0.00 in0.0 mm
07:35 AM 57.3°F14.1°C 48.0°F8.9°C 71% 7.2 mph NW11.6 kmh NW 12.8 mph20.6 kmh 29.93 in1013.5 mb 0.00 in0.0 mm 0.00 in0.0 mm 0.00 in0.0 mm
07:40 AM 57.5°F14.2°C 48.1°F8.9°C 71% 7.2 mph NW11.6 kmh NW 10.7 mph17.2 kmh 29.96 in1014.6 mb 0.00 in0.0 mm 0.00 in0.0 mm 0.00 in0.0 mm
07:45 AM 57.8°F14.3°C 48.1°F8.9°C 70% 7.4 mph NW11.9 kmh NW 12.5 mph20.1 kmh 29.96 in1014.6 mb 0.00 in0.0 mm 0.00 in0.0 mm 0.00 in0.0 mm
07:50 AM 58.0°F14.4°C 47.9°F8.8°C 69% 9.0 mph NW14.5 kmh NW 14.9 mph24.0 kmh 29.96 in1014.6 mb 0.00 in0.0 mm 0.00 in0.0 mm 0.00 in0.0 mm
07:55 AM 57.8°F14.3°C 47.7°F8.7°C 69% 8.5 mph NW13.7 kmh NW 14.9 mph24.0 kmh 29.96 in1014.6 mb 0.00 in0.0 mm 0.00 in0.0 mm 0.00 in0.0 mm
08:00 AM 58.0°F14.4°C 47.9°F8.8°C 69% 5.9 mph WNW9.5 kmh WNW 8.6 mph13.8 kmh 29.96 in1014.6 mb 0.00 in0.0 mm 0.00 in0.0 mm 0.00 in0.0 mm
08:05 AM 58.4°F14.7°C 48.2°F9.0°C 69% 5.9 mph NW9.5 kmh NW 14.6 mph23.5 kmh 29.96 in1014.6 mb 0.00 in0.0 mm 0.00 in0.0 mm 0.00 in0.0 mm
08:10 AM 58.7°F14.8°C 48.6°F9.2°C 69% 7.0 mph WNW11.3 kmh WNW 14.6 mph23.5 kmh 29.96 in1014.6 mb 0.00 in0.0 mm 0.00 in0.0 mm 0.00 in0.0 mm
08:15 AM 58.9°F14.9°C 48.4°F9.1°C 68% 7.2 mph WNW11.6 kmh WNW 8.6 mph13.8 kmh 29.96 in1014.6 mb 0.00 in0.0 mm 0.00 in0.0 mm 0.00 in0.0 mm
08:20 AM 59.1°F15.1°C 48.5°F9.2°C 68% 8.1 mph WNW13.0 kmh WNW 11.3 mph18.2 kmh 29.96 in1014.6 mb 0.00 in0.0 mm 0.00 in0.0 mm 0.00 in0.0 mm
08:25 AM 59.3°F15.2°C 48.3°F9.1°C 67% 9.9 mph WNW15.9 kmh WNW 14.9 mph24.0 kmh 29.96 in1014.6 mb 0.00 in0.0 mm 0.00 in0.0 mm 0.00 in0.0 mm
08:30 AM 59.3°F15.2°C 47.9°F8.8°C 66% 9.8 mph WNW15.8 kmh WNW 14.9 mph24.0 kmh 29.96 in1014.6 mb 0.00 in0.0 mm 0.00 in0.0 mm 0.00 in0.0 mm
08:35 AM 59.5°F15.3°C 48.5°F9.2°C 67% 9.3 mph WNW15.0 kmh WNW 11.6 mph18.7 kmh 29.96 in1014.6 mb 0.00 in0.0 mm 0.00 in0.0 mm 0.00 in0.0 mm
08:40 AM 59.6°F15.3°C 48.3°F9.1°C 66% 9.5 mph WNW15.3 kmh WNW 14.0 mph22.5 kmh 29.96 in1014.6 mb 0.00 in0.0 mm 0.00 in0.0 mm 0.00 in0.0 mm
08:45 AM 60.2°F15.7°C 48.8°F9.3°C 66% 9.4 mph NW15.1 kmh NW 14.3 mph23.0 kmh 29.96 in1014.6 mb 0.00 in0.0 mm 0.00 in0.0 mm 0.00 in0.0 mm
08:50 AM 60.3°F15.7°C 48.5°F9.2°C 65% 9.0 mph WNW14.5 kmh WNW 16.1 mph25.9 kmh 29.96 in1014.6 mb 0.00 in0.0 mm 0.00 in0.0 mm 0.00 in0.0 mm
08:55 AM 61.1°F16.2°C 49.2°F9.6°C 65% 8.3 mph WNW13.4 kmh WNW 16.1 mph25.9 kmh 29.96 in1014.6 mb 0.00 in0.0 mm 0.00 in0.0 mm 0.00 in0.0 mm
09:00 AM 61.4°F16.3°C 49.1°F9.5°C 64% 8.0 mph WNW12.9 kmh WNW 12.8 mph20.6 kmh 29.96 in1014.6 mb 0.00 in0.0 mm 0.00 in0.0 mm 0.00 in0.0 mm
09:05 AM 61.6°F16.4°C 49.3°F9.6°C 64% 9.0 mph WNW14.5 kmh WNW 16.4 mph26.4 kmh 29.96 in1014.6 mb 0.00 in0.0 mm 0.00 in0.0 mm 0.00 in0.0 mm
09:10 AM 62.2°F16.8°C 49.8°F9.9°C 64% 8.4 mph WNW13.5 kmh WNW 16.4 mph26.4 kmh 29.96 in1014.6 mb 0.00 in0.0 mm 0.00 in0.0 mm 0.00 in0.0 mm
09:15 AM 62.3°F16.8°C 49.6°F9.8°C 63% 6.5 mph WNW10.5 kmh WNW 9.8 mph15.8 kmh 29.96 in1014.6 mb 0.00 in0.0 mm 0.00 in0.0 mm 0.00 in0.0 mm
09:20 AM 62.3°F16.8°C 49.6°F9.8°C 63% 8.1 mph NW13.0 kmh NW 14.3 mph23.0 kmh 29.96 in1014.6 mb 0.00 in0.0 mm 0.00 in0.0 mm 0.00 in0.0 mm
09:25 AM 62.3°F16.8°C 49.1°F9.5°C 62% 9.3 mph NW15.0 kmh NW 14.3 mph23.0 kmh 29.96 in1014.6 mb 0.00 in0.0 mm 0.00 in0.0 mm 0.00 in0.0 mm
09:30 AM 62.0°F16.7°C 48.4°F9.1°C 61% 8.3 mph WNW13.4 kmh WNW 11.3 mph18.2 kmh 29.96 in1014.6 mb 0.00 in0.0 mm 0.00 in0.0 mm 0.00 in0.0 mm
09:35 AM 62.0°F16.7°C 48.4°F9.1°C 61% 8.3 mph WNW13.4 kmh WNW 11.6 mph18.7 kmh 29.96 in1014.6 mb 0.00 in0.0 mm 0.00 in0.0 mm 0.00 in0.0 mm
09:40 AM 62.3°F16.8°C 48.7°F9.3°C 61% 8.3 mph WNW13.4 kmh WNW 13.7 mph22.0 kmh 29.96 in1014.6 mb 0.00 in0.0 mm 0.00 in0.0 mm 0.00 in0.0 mm
09:45 AM 63.0°F17.2°C 49.4°F9.7°C 61% 8.2 mph W13.2 kmh W 13.7 mph22.0 kmh 29.96 in1014.6 mb 0.00 in0.0 mm 0.00 in0.0 mm 0.00 in0.0 mm
09:50 AM 63.0°F17.2°C 48.9°F9.4°C 60% 10.0 mph W16.1 kmh W 17.0 mph27.4 kmh 29.96 in1014.6 mb 0.00 in0.0 mm 0.00 in0.0 mm 0.00 in0.0 mm
09:55 AM 63.4°F17.4°C 48.8°F9.3°C 59% 9.4 mph W15.1 kmh W 17.0 mph27.4 kmh 29.96 in1014.6 mb 0.00 in0.0 mm 0.00 in0.0 mm 0.00 in0.0 mm
10:00 AM 63.4°F17.4°C 48.8°F9.3°C 59% 8.5 mph W13.7 kmh W 16.4 mph26.4 kmh 29.96 in1014.6 mb 0.00 in0.0 mm 0.00 in0.0 mm 0.00 in0.0 mm
10:05 AM 63.6°F17.6°C 48.5°F9.2°C 58% 11.0 mph W17.7 kmh W 16.4 mph26.4 kmh 29.96 in1014.6 mb 0.00 in0.0 mm 0.00 in0.0 mm 0.00 in0.0 mm
10:10 AM 63.8°F17.7°C 47.8°F8.8°C 56% 10.8 mph W17.4 kmh W 13.7 mph22.0 kmh 29.96 in1014.6 mb 0.00 in0.0 mm 0.00 in0.0 mm 0.00 in0.0 mm
10:15 AM 63.8°F17.7°C 48.2°F9.0°C 57% 10.7 mph WNW17.2 kmh WNW 16.1 mph25.9 kmh 29.96 in1014.6 mb 0.00 in0.0 mm 0.00 in0.0 mm 0.00 in0.0 mm
10:20 AM 64.0°F17.8°C 47.9°F8.8°C 56% 12.8 mph WNW20.6 kmh WNW 20.2 mph32.5 kmh 29.96 in1014.6 mb 0.00 in0.0 mm 0.00 in0.0 mm 0.00 in0.0 mm
10:25 AM 64.0°F17.8°C 47.9°F8.8°C 56% 12.6 mph W20.3 kmh W 20.2 mph32.5 kmh 29.93 in1013.5 mb 0.00 in0.0 mm 0.00 in0.0 mm 0.00 in0.0 mm
10:30 AM 64.3°F17.9°C 48.3°F9.1°C 56% 12.7 mph W20.4 kmh W 20.2 mph32.5 kmh 29.93 in1013.5 mb 0.00 in0.0 mm 0.00 in0.0 mm 0.00 in0.0 mm
10:35 AM 64.0°F17.8°C 47.5°F8.6°C 55% 10.8 mph W17.4 kmh W 15.2 mph24.5 kmh 29.93 in1013.5 mb 0.00 in0.0 mm 0.00 in0.0 mm 0.00 in0.0 mm
10:40 AM 63.6°F17.6°C 47.1°F8.4°C 55% 10.2 mph WSW16.4 kmh WSW 22.6 mph36.4 kmh 29.93 in1013.5 mb 0.00 in0.0 mm 0.00 in0.0 mm 0.00 in0.0 mm
10:45 AM 63.2°F17.3°C 47.3°F8.5°C 56% 11.9 mph WSW19.2 kmh WSW 22.6 mph36.4 kmh 29.93 in1013.5 mb 0.00 in0.0 mm 0.00 in0.0 mm 0.00 in0.0 mm
10:50 AM 62.5°F16.9°C 47.5°F8.6°C 58% 13.1 mph WSW21.1 kmh WSW 17.6 mph28.3 kmh 29.93 in1013.5 mb 0.00 in0.0 mm 0.00 in0.0 mm 0.00 in0.0 mm
10:55 AM 62.3°F16.8°C 47.8°F8.8°C 59% 14.7 mph WSW23.7 kmh WSW 20.8 mph33.5 kmh 29.93 in1013.5 mb 0.00 in0.0 mm 0.00 in0.0 mm 0.00 in0.0 mm
11:00 AM 62.3°F16.8°C 47.8°F8.8°C 59% 14.6 mph W23.5 kmh W 20.8 mph33.5 kmh 29.93 in1013.5 mb 0.00 in0.0 mm 0.00 in0.0 mm 0.00 in0.0 mm
11:05 AM 62.5°F16.9°C 48.4°F9.1°C 60% 12.8 mph W20.6 kmh W 16.7 mph26.9 kmh 29.93 in1013.5 mb 0.00 in0.0 mm 0.00 in0.0 mm 0.00 in0.0 mm
11:10 AM 62.7°F17.1°C 48.6°F9.2°C 60% 11.7 mph WNW18.8 kmh WNW 14.3 mph23.0 kmh 29.93 in1013.5 mb 0.00 in0.0 mm 0.00 in0.0 mm 0.00 in0.0 mm
11:15 AM 63.0°F17.2°C 48.9°F9.4°C 60% 11.9 mph W19.2 kmh W 16.4 mph26.4 kmh 29.93 in1013.5 mb 0.00 in0.0 mm 0.00 in0.0 mm 0.00 in0.0 mm
11:20 AM 63.4°F17.4°C 48.8°F9.3°C 59% 12.1 mph W19.5 kmh W 16.4 mph26.4 kmh 29.93 in1013.5 mb 0.00 in0.0 mm 0.00 in0.0 mm 0.00 in0.0 mm
11:25 AM 63.6°F17.6°C 49.0°F9.4°C 59% 12.4 mph W20.0 kmh W 16.4 mph26.4 kmh 29.93 in1013.5 mb 0.00 in0.0 mm 0.00 in0.0 mm 0.00 in0.0 mm
11:30 AM 64.3°F17.9°C 49.2°F9.6°C 58% 12.3 mph WNW19.8 kmh WNW 16.1 mph25.9 kmh 29.93 in1013.5 mb 0.00 in0.0 mm 0.00 in0.0 mm 0.00 in0.0 mm
11:35 AM 64.3°F17.9°C 48.7°F9.3°C 57% 11.8 mph WNW19.0 kmh WNW 17.0 mph27.4 kmh 29.93 in1013.5 mb 0.00 in0.0 mm 0.00 in0.0 mm 0.00 in0.0 mm
11:40 AM 63.0°F17.2°C 47.6°F8.7°C 57% 15.2 mph W24.5 kmh W 26.2 mph42.2 kmh 29.96 in1014.6 mb 0.00 in0.0 mm 0.00 in0.0 mm 0.00 in0.0 mm
11:45 AM 62.3°F16.8°C 47.4°F8.6°C 58% 18.7 mph W30.1 kmh W 26.2 mph42.2 kmh 29.96 in1014.6 mb 0.00 in0.0 mm 0.00 in0.0 mm 0.00 in0.0 mm
11:50 AM 61.8°F16.6°C 47.3°F8.5°C 59% 16.8 mph W27.0 kmh W 23.5 mph37.8 kmh 29.96 in1014.6 mb 0.00 in0.0 mm 0.00 in0.0 mm 0.00 in0.0 mm
11:55 AM 61.8°F16.6°C 47.8°F8.8°C 60% 16.8 mph W27.0 kmh W 26.5 mph42.6 kmh 29.93 in1013.5 mb 0.00 in0.0 mm 0.00 in0.0 mm 0.00 in0.0 mm
12:00 PM 62.3°F16.8°C 48.3°F9.1°C 60% 15.4 mph W24.8 kmh W 26.5 mph42.6 kmh 29.93 in1013.5 mb 0.00 in0.0 mm 0.00 in0.0 mm 0.00 in0.0 mm
12:05 PM 62.7°F17.1°C 49.0°F9.4°C 61% 12.6 mph W20.3 kmh W 20.5 mph33.0 kmh 29.93 in1013.5 mb 0.00 in0.0 mm 0.00 in0.0 mm 0.00 in0.0 mm
12:10 PM 61.8°F16.6°C 48.2°F9.0°C 61% 13.7 mph W22.0 kmh W 22.6 mph36.4 kmh 29.93 in1013.5 mb 0.00 in0.0 mm 0.00 in0.0 mm 0.00 in0.0 mm
12:15 PM 61.4°F16.3°C 47.4°F8.6°C 60% 12.0 mph WNW19.3 kmh WNW 22.6 mph36.4 kmh 29.93 in1013.5 mb 0.00 in0.0 mm 0.00 in0.0 mm 0.00 in0.0 mm
12:20 PM 61.1°F16.2°C 47.9°F8.8°C 62% 12.8 mph W20.6 kmh W 19.6 mph31.5 kmh 29.93 in1013.5 mb 0.00 in0.0 mm 0.00 in0.0 mm 0.00 in0.0 mm
12:25 PM 60.7°F15.9°C 48.5°F9.2°C 64% 12.6 mph W20.3 kmh W 19.6 mph31.5 kmh 29.93 in1013.5 mb 0.00 in0.0 mm 0.00 in0.0 mm 0.00 in0.0 mm
12:30 PM 60.2°F15.7°C 48.8°F9.3°C 66% 10.9 mph WSW17.5 kmh WSW 14.9 mph24.0 kmh 29.93 in1013.5 mb 0.00 in0.0 mm 0.00 in0.0 mm 0.00 in0.0 mm
12:35 PM 60.2°F15.7°C 49.2°F9.6°C 67% 10.7 mph W17.2 kmh W 14.3 mph23.0 kmh 29.93 in1013.5 mb 0.00 in0.0 mm 0.00 in0.0 mm 0.00 in0.0 mm
12:40 PM 60.5°F15.8°C 49.1°F9.5°C 66% 14.4 mph W23.2 kmh W 22.9 mph36.9 kmh 29.96 in1014.6 mb 0.00 in0.0 mm 0.00 in0.0 mm 0.00 in0.0 mm
12:45 PM 61.1°F16.2°C 49.6°F9.8°C 66% 12.0 mph W19.3 kmh W 22.9 mph36.9 kmh 29.96 in1014.6 mb 0.00 in0.0 mm 0.00 in0.0 mm 0.00 in0.0 mm
12:50 PM 61.4°F16.3°C 49.6°F9.8°C 65% 13.2 mph W21.2 kmh W 22.9 mph36.9 kmh 29.96 in1014.6 mb 0.00 in0.0 mm 0.00 in0.0 mm 0.00 in0.0 mm
12:55 PM 61.4°F16.3°C 49.1°F9.5°C 64% 14.7 mph W23.7 kmh W 22.6 mph36.4 kmh 29.96 in1014.6 mb 0.00 in0.0 mm 0.00 in0.0 mm 0.00 in0.0 mm
01:00 PM 61.6°F16.4°C 48.9°F9.4°C 63% 13.3 mph W21.4 kmh W 20.2 mph32.5 kmh 29.96 in1014.6 mb 0.00 in0.0 mm 0.00 in0.0 mm 0.00 in0.0 mm
01:05 PM 61.6°F16.4°C 48.9°F9.4°C 63% 13.4 mph W21.6 kmh W 20.2 mph32.5 kmh 29.96 in1014.6 mb 0.00 in0.0 mm 0.00 in0.0 mm 0.00 in0.0 mm
01:10 PM 61.1°F16.2°C 48.8°F9.3°C 64% 13.6 mph W21.9 kmh W 20.2 mph32.5 kmh 29.96 in1014.6 mb 0.00 in0.0 mm 0.00 in0.0 mm 0.00 in0.0 mm
01:15 PM 60.7°F15.9°C 48.5°F9.2°C 64% 12.2 mph W19.6 kmh W 20.2 mph32.5 kmh 29.96 in1014.6 mb 0.00 in0.0 mm 0.00 in0.0 mm 0.00 in0.0 mm
01:20 PM 60.3°F15.7°C 48.1°F8.9°C 64% 11.3 mph WNW18.2 kmh WNW 19.6 mph31.5 kmh 29.96 in1014.6 mb 0.00 in0.0 mm 0.00 in0.0 mm 0.00 in0.0 mm
01:25 PM 58.7°F14.8°C 47.4°F8.6°C 66% 13.1 mph WNW21.1 kmh WNW 23.8 mph38.3 kmh 29.96 in1014.6 mb 0.00 in0.0 mm 0.00 in0.0 mm 0.00 in0.0 mm
01:30 PM 58.4°F14.7°C 47.8°F8.8°C 68% 12.3 mph W19.8 kmh W 23.8 mph38.3 kmh 29.96 in1014.6 mb 0.00 in0.0 mm 0.00 in0.0 mm 0.00 in0.0 mm
01:35 PM 58.2°F14.6°C 47.7°F8.7°C 68% 9.1 mph W14.6 kmh W 14.3 mph23.0 kmh 29.96 in1014.6 mb 0.00 in0.0 mm 0.00 in0.0 mm 0.00 in0.0 mm
01:40 PM 58.0°F14.4°C 47.9°F8.8°C 69% 9.7 mph W15.6 kmh W 14.3 mph23.0 kmh 29.96 in1014.6 mb 0.00 in0.0 mm 0.00 in0.0 mm 0.00 in0.0 mm
01:45 PM 58.2°F14.6°C 48.1°F8.9°C 69% 11.0 mph W17.7 kmh W 19.6 mph31.5 kmh 29.96 in1014.6 mb 0.00 in0.0 mm 0.00 in0.0 mm 0.00 in0.0 mm
01:50 PM 58.2°F14.6°C 48.1°F8.9°C 69% 10.5 mph W16.9 kmh W 19.6 mph31.5 kmh 29.96 in1014.6 mb 0.00 in0.0 mm 0.00 in0.0 mm 0.00 in0.0 mm
01:55 PM 58.0°F14.4°C 47.9°F8.8°C 69% 9.4 mph W15.1 kmh W 13.1 mph21.1 kmh 29.93 in1013.5 mb 0.00 in0.0 mm 0.00 in0.0 mm 0.00 in0.0 mm
02:00 PM 57.8°F14.3°C 48.1°F8.9°C 70% 8.8 mph WNW14.2 kmh WNW 11.9 mph19.2 kmh 29.93 in1013.5 mb 0.00 in0.0 mm 0.00 in0.0 mm 0.00 in0.0 mm
02:05 PM 57.3°F14.1°C 48.0°F8.9°C 71% 10.0 mph WNW16.1 kmh WNW 17.6 mph28.3 kmh 29.93 in1013.5 mb 0.00 in0.0 mm 0.00 in0.0 mm 0.00 in0.0 mm
02:10 PM 56.9°F13.8°C 47.6°F8.7°C 71% 12.4 mph W20.0 kmh W 17.6 mph28.3 kmh 29.96 in1014.6 mb 0.03 in0.8 mm 0.36 in9.1 mm 0.03 in0.8 mm
02:15 PM 56.4°F13.6°C 47.5°F8.6°C 72% 11.1 mph W17.9 kmh W 17.0 mph27.4 kmh 29.96 in1014.6 mb 0.03 in0.8 mm 0.00 in0.0 mm 0.03 in0.8 mm
02:20 PM 56.4°F13.6°C 47.5°F8.6°C 72% 8.9 mph W14.3 kmh W 13.1 mph21.1 kmh 29.96 in1014.6 mb 0.03 in0.8 mm 0.00 in0.0 mm 0.03 in0.8 mm
02:25 PM 56.8°F13.8°C 48.6°F9.2°C 74% 9.2 mph WNW14.8 kmh WNW 16.4 mph26.4 kmh 29.93 in1013.5 mb 0.03 in0.8 mm 0.00 in0.0 mm 0.03 in0.8 mm
02:30 PM 56.9°F13.8°C 48.4°F9.1°C 73% 11.6 mph WNW18.7 kmh WNW 16.4 mph26.4 kmh 29.93 in1013.5 mb 0.03 in0.8 mm 0.00 in0.0 mm 0.03 in0.8 mm
02:35 PM 57.3°F14.1°C 48.7°F9.3°C 73% 12.8 mph W20.6 kmh W 17.6 mph28.3 kmh 29.93 in1013.5 mb 0.03 in0.8 mm 0.00 in0.0 mm 0.03 in0.8 mm
02:40 PM 56.9°F13.8°C 48.4°F9.1°C 73% 13.4 mph W21.6 kmh W 20.5 mph33.0 kmh 29.93 in1013.5 mb 0.03 in0.8 mm 0.00 in0.0 mm 0.03 in0.8 mm
02:45 PM 56.8°F13.8°C 48.2°F9.0°C 73% 12.8 mph W20.6 kmh W 20.5 mph33.0 kmh 29.93 in1013.5 mb 0.03 in0.8 mm 0.00 in0.0 mm 0.03 in0.8 mm
02:50 PM 57.3°F14.1°C 49.1°F9.5°C 74% 11.4 mph W18.3 kmh W 18.4 mph29.6 kmh 29.93 in1013.5 mb 0.03 in0.8 mm 0.00 in0.0 mm 0.03 in0.8 mm
02:55 PM 57.5°F14.2°C 49.2°F9.6°C 74% 11.4 mph W18.3 kmh W 18.4 mph29.6 kmh 29.93 in1013.5 mb 0.03 in0.8 mm 0.00 in0.0 mm 0.03 in0.8 mm
03:00 PM 57.7°F14.3°C 49.4°F9.7°C 74% 12.3 mph W19.8 kmh W 17.6 mph28.3 kmh 29.93 in1013.5 mb 0.03 in0.8 mm 0.00 in0.0 mm 0.03 in0.8 mm
03:05 PM 57.8°F14.3°C 49.2°F9.6°C 73% 13.0 mph WSW20.9 kmh WSW 17.0 mph27.4 kmh 29.93 in1013.5 mb 0.03 in0.8 mm 0.00 in0.0 mm 0.03 in0.8 mm
03:10 PM 58.0°F14.4°C 49.4°F9.7°C 73% 11.5 mph W18.5 kmh W 17.0 mph27.4 kmh 29.90 in1012.5 mb 0.00 in0.0 mm 0.00 in0.0 mm 0.03 in0.8 mm
03:15 PM 58.0°F14.4°C 49.4°F9.7°C 73% 10.0 mph W16.1 kmh W 21.7 mph34.9 kmh 29.90 in1012.5 mb 0.00 in0.0 mm 0.00 in0.0 mm 0.03 in0.8 mm
03:20 PM 58.0°F14.4°C 49.4°F9.7°C 73% 9.6 mph W15.4 kmh W 21.7 mph34.9 kmh 29.90 in1012.5 mb 0.00 in0.0 mm 0.00 in0.0 mm 0.03 in0.8 mm
03:25 PM 58.0°F14.4°C 49.4°F9.7°C 73% 10.5 mph W16.9 kmh W 21.7 mph34.9 kmh 29.90 in1012.5 mb 0.00 in0.0 mm 0.00 in0.0 mm 0.03 in0.8 mm
03:30 PM 58.0°F14.4°C 49.0°F9.4°C 72% 10.0 mph W16.1 kmh W 22.3 mph35.9 kmh 29.90 in1012.5 mb 0.00 in0.0 mm 0.00 in0.0 mm 0.03 in0.8 mm
03:35 PM 57.8°F14.3°C 48.9°F9.4°C 72% 11.5 mph W18.5 kmh W 22.3 mph35.9 kmh 29.90 in1012.5 mb 0.00 in0.0 mm 0.00 in0.0 mm 0.03 in0.8 mm
03:40 PM 57.5°F14.2°C 48.9°F9.4°C 73% 12.7 mph W20.4 kmh W 22.3 mph35.9 kmh 29.90 in1012.5 mb 0.00 in0.0 mm 0.00 in0.0 mm 0.03 in0.8 mm
03:45 PM 57.3°F14.1°C 49.1°F9.5°C 74% 11.4 mph WNW18.3 kmh WNW 17.3 mph27.8 kmh 29.90 in1012.5 mb 0.00 in0.0 mm 0.00 in0.0 mm 0.03 in0.8 mm
03:50 PM 56.9°F13.8°C 48.7°F9.3°C 74% 9.2 mph WNW14.8 kmh WNW 13.7 mph22.0 kmh 29.90 in1012.5 mb 0.00 in0.0 mm 0.00 in0.0 mm 0.03 in0.8 mm
03:55 PM 56.9°F13.8°C 48.7°F9.3°C 74% 9.8 mph WNW15.8 kmh WNW 25.3 mph40.7 kmh 29.90 in1012.5 mb 0.00 in0.0 mm 0.00 in0.0 mm 0.03 in0.8 mm
04:00 PM 57.3°F14.1°C 49.1°F9.5°C 74% 12.6 mph W20.3 kmh W 25.3 mph40.7 kmh 29.90 in1012.5 mb 0.00 in0.0 mm 0.00 in0.0 mm 0.03 in0.8 mm
04:05 PM 57.5°F14.2°C 48.9°F9.4°C 73% 11.7 mph WSW18.8 kmh WSW 17.3 mph27.8 kmh 29.90 in1012.5 mb 0.00 in0.0 mm 0.00 in0.0 mm 0.03 in0.8 mm
04:10 PM 57.5°F14.2°C 48.9°F9.4°C 73% 10.5 mph W16.9 kmh W 14.6 mph23.5 kmh 29.90 in1012.5 mb 0.00 in0.0 mm 0.00 in0.0 mm 0.03 in0.8 mm
04:15 PM 57.7°F14.3°C 49.1°F9.5°C 73% 9.7 mph WNW15.6 kmh WNW 16.1 mph25.9 kmh 29.90 in1012.5 mb 0.00 in0.0 mm 0.00 in0.0 mm 0.03 in0.8 mm
04:20 PM 57.5°F14.2°C 49.2°F9.6°C 74% 10.4 mph W16.7 kmh W 16.4 mph26.4 kmh 29.90 in1012.5 mb 0.00 in0.0 mm 0.00 in0.0 mm 0.03 in0.8 mm
04:25 PM 57.3°F14.1°C 48.7°F9.3°C 73% 11.4 mph W18.3 kmh W 16.4 mph26.4 kmh 29.87 in1011.5 mb 0.00 in0.0 mm 0.00 in0.0 mm 0.03 in0.8 mm
04:30 PM 56.9°F13.8°C 48.7°F9.3°C 74% 16.0 mph NW25.7 kmh NW 31.8 mph51.2 kmh 29.87 in1011.5 mb 0.00 in0.0 mm 0.00 in0.0 mm 0.03 in0.8 mm
04:35 PM 56.2°F13.4°C 48.0°F8.9°C 74% 16.1 mph NW25.9 kmh NW 31.8 mph51.2 kmh 29.87 in1011.5 mb 0.05 in1.3 mm 0.60 in15.2 mm 0.08 in2.0 mm
04:40 PM 55.5°F13.1°C 48.0°F8.9°C 76% 11.6 mph NW18.7 kmh NW 14.6 mph23.5 kmh 29.87 in1011.5 mb 0.13 in3.3 mm 0.96 in24.4 mm 0.16 in4.1 mm
04:45 PM 55.3°F12.9°C 48.2°F9.0°C 77% 11.1 mph NW17.9 kmh NW 16.7 mph26.9 kmh 29.87 in1011.5 mb 0.13 in3.3 mm 0.00 in0.0 mm 0.16 in4.1 mm
04:50 PM 54.8°F12.7°C 48.0°F8.9°C 78% 7.9 mph WNW12.7 kmh WNW 16.7 mph26.9 kmh 29.87 in1011.5 mb 0.13 in3.3 mm 0.00 in0.0 mm 0.16 in4.1 mm
04:55 PM 54.6°F12.6°C 47.9°F8.8°C 78% 5.9 mph NW9.5 kmh NW 9.5 mph15.3 kmh 29.90 in1012.5 mb 0.17 in4.3 mm 0.48 in12.2 mm 0.20 in5.1 mm
05:00 PM 54.0°F12.2°C 48.0°F8.9°C 80% 6.6 mph NW10.6 kmh NW 11.3 mph18.2 kmh 29.90 in1012.5 mb 0.21 in5.3 mm 0.04 in1.0 mm 0.24 in6.1 mm
05:05 PM 54.0°F12.2°C 48.0°F8.9°C 80% 7.7 mph WNW12.4 kmh WNW 11.3 mph18.2 kmh 29.90 in1012.5 mb 0.21 in5.3 mm 0.00 in0.0 mm 0.24 in6.1 mm
05:10 PM 54.2°F12.3°C 48.2°F9.0°C 80% 9.0 mph WNW14.5 kmh WNW 13.4 mph21.6 kmh 29.87 in1011.5 mb 0.21 in5.3 mm 0.00 in0.0 mm 0.24 in6.1 mm
05:15 PM 54.2°F12.3°C 48.5°F9.2°C 81% 9.9 mph WNW15.9 kmh WNW 17.3 mph27.8 kmh 29.87 in1011.5 mb 0.21 in5.3 mm 0.00 in0.0 mm 0.24 in6.1 mm
05:20 PM 54.6°F12.6°C 48.9°F9.4°C 81% 12.7 mph WNW20.4 kmh WNW 22.9 mph36.9 kmh 29.87 in1011.5 mb 0.21 in5.3 mm 0.00 in0.0 mm 0.24 in6.1 mm
05:25 PM 54.4°F12.4°C 48.7°F9.3°C 81% 14.5 mph NW23.3 kmh NW 22.9 mph36.9 kmh 29.90 in1012.5 mb 0.21 in5.3 mm 0.00 in0.0 mm 0.24 in6.1 mm
05:30 PM 54.2°F12.3°C 48.5°F9.2°C 81% 12.6 mph WNW20.3 kmh WNW 17.9 mph28.8 kmh 29.90 in1012.5 mb 0.21 in5.3 mm 0.00 in0.0 mm 0.24 in6.1 mm
05:35 PM 53.7°F12.1°C 48.0°F8.9°C 81% 12.7 mph W20.4 kmh W 18.4 mph29.6 kmh 29.90 in1012.5 mb 0.12 in3.0 mm 0.00 in0.0 mm 0.24 in6.1 mm
05:40 PM 53.3°F11.8°C 47.3°F8.5°C 80% 13.0 mph WNW20.9 kmh WNW 18.4 mph29.6 kmh 29.90 in1012.5 mb 0.08 in2.0 mm 0.00 in0.0 mm 0.24 in6.1 mm
05:45 PM 53.2°F11.8°C 47.5°F8.6°C 81% 11.1 mph WNW17.9 kmh WNW 18.4 mph29.6 kmh 29.90 in1012.5 mb 0.08 in2.0 mm 0.00 in0.0 mm 0.24 in6.1 mm
05:50 PM 53.0°F11.7°C 47.3°F8.5°C 81% 8.1 mph WNW13.0 kmh WNW 12.8 mph20.6 kmh 29.90 in1012.5 mb 0.13 in3.3 mm 0.60 in15.2 mm 0.29 in7.4 mm
05:55 PM 53.0°F11.7°C 47.3°F8.5°C 81% 7.8 mph NW12.6 kmh NW 12.8 mph20.6 kmh 29.84 in1010.5 mb 0.09 in2.3 mm 0.00 in0.0 mm 0.29 in7.4 mm
06:00 PM 53.0°F11.7°C 47.3°F8.5°C 81% 6.9 mph WNW11.1 kmh WNW 11.3 mph18.2 kmh 29.84 in1010.5 mb 0.05 in1.3 mm 0.00 in0.0 mm 0.29 in7.4 mm
06:05 PM 53.0°F11.7°C 47.6°F8.7°C 82% 8.6 mph W13.8 kmh W 14.3 mph23.0 kmh 29.84 in1010.5 mb 0.05 in1.3 mm 0.00 in0.0 mm 0.29 in7.4 mm
06:10 PM 53.0°F11.7°C 47.6°F8.7°C 82% 9.7 mph W15.6 kmh W 16.4 mph26.4 kmh 29.84 in1010.5 mb 0.05 in1.3 mm 0.00 in0.0 mm 0.29 in7.4 mm
06:15 PM 53.2°F11.8°C 48.1°F8.9°C 83% 9.4 mph W15.1 kmh W 16.4 mph26.4 kmh 29.84 in1010.5 mb 0.05 in1.3 mm 0.00 in0.0 mm 0.29 in7.4 mm
06:20 PM 53.2°F11.8°C 48.1°F8.9°C 83% 8.4 mph W13.5 kmh W 13.4 mph21.6 kmh 29.84 in1010.5 mb 0.05 in1.3 mm 0.00 in0.0 mm 0.29 in7.4 mm
06:25 PM 53.2°F11.8°C 48.1°F8.9°C 83% 8.9 mph W14.3 kmh W 14.0 mph22.5 kmh 29.87 in1011.5 mb 0.05 in1.3 mm 0.00 in0.0 mm 0.29 in7.4 mm
06:30 PM 53.2°F11.8°C 48.1°F8.9°C 83% 8.7 mph WNW14.0 kmh WNW 14.0 mph22.5 kmh 29.87 in1011.5 mb 0.05 in1.3 mm 0.00 in0.0 mm 0.29 in7.4 mm
06:35 PM 53.2°F11.8°C 48.1°F8.9°C 83% 8.2 mph NW13.2 kmh NW 14.0 mph22.5 kmh 29.87 in1011.5 mb 0.05 in1.3 mm 0.00 in0.0 mm 0.29 in7.4 mm
06:40 PM 53.3°F11.8°C 48.3°F9.1°C 83% 8.1 mph WNW13.0 kmh WNW 14.0 mph22.5 kmh 29.87 in1011.5 mb 0.05 in1.3 mm 0.00 in0.0 mm 0.29 in7.4 mm
06:45 PM 53.3°F11.8°C 48.3°F9.1°C 83% 8.2 mph WNW13.2 kmh WNW 12.8 mph20.6 kmh 29.87 in1011.5 mb 0.05 in1.3 mm 0.00 in0.0 mm 0.29 in7.4 mm
06:50 PM 53.2°F11.8°C 48.1°F8.9°C 83% 8.7 mph WNW14.0 kmh WNW 12.8 mph20.6 kmh 29.87 in1011.5 mb 0.00 in0.0 mm 0.00 in0.0 mm 0.29 in7.4 mm
06:55 PM 53.3°F11.8°C 48.3°F9.1°C 83% 6.9 mph WNW11.1 kmh WNW 10.1 mph16.3 kmh 29.87 in1011.5 mb 0.00 in0.0 mm 0.00 in0.0 mm 0.29 in7.4 mm
07:00 PM 53.3°F11.8°C 48.3°F9.1°C 83% 6.6 mph WNW10.6 kmh WNW 8.3 mph13.4 kmh 29.87 in1011.5 mb 0.00 in0.0 mm 0.00 in0.0 mm 0.29 in7.4 mm
07:05 PM 53.3°F11.8°C 48.3°F9.1°C 83% 8.0 mph NW12.9 kmh NW 10.7 mph17.2 kmh 29.87 in1011.5 mb 0.00 in0.0 mm 0.00 in0.0 mm 0.29 in7.4 mm
07:10 PM 53.0°F11.7°C 47.6°F8.7°C 82% 7.9 mph NNW12.7 kmh NNW 14.3 mph23.0 kmh 29.87 in1011.5 mb 0.00 in0.0 mm 0.00 in0.0 mm 0.29 in7.4 mm
07:15 PM 52.4°F11.3°C 46.8°F8.2°C 81% 8.7 mph NNW14.0 kmh NNW 14.3 mph23.0 kmh 29.87 in1011.5 mb 0.00 in0.0 mm 0.00 in0.0 mm 0.29 in7.4 mm
07:20 PM 52.3°F11.3°C 46.3°F7.9°C 80% 9.8 mph NW15.8 kmh NW 16.4 mph26.4 kmh 29.87 in1011.5 mb 0.00 in0.0 mm 0.00 in0.0 mm 0.29 in7.4 mm
07:25 PM 52.3°F11.3°C 46.3°F7.9°C 80% 7.9 mph NW12.7 kmh NW 16.4 mph26.4 kmh 29.87 in1011.5 mb 0.00 in0.0 mm 0.00 in0.0 mm 0.29 in7.4 mm
07:30 PM 52.1°F11.2°C 46.1°F7.8°C 80% 5.8 mph WNW9.3 kmh WNW 16.4 mph26.4 kmh 29.87 in1011.5 mb 0.00 in0.0 mm 0.00 in0.0 mm 0.29 in7.4 mm
07:35 PM 51.9°F11.1°C 45.9°F7.7°C 80% 5.0 mph W8.0 kmh W 8.6 mph13.8 kmh 29.87 in1011.5 mb 0.00 in0.0 mm 0.00 in0.0 mm 0.29 in7.4 mm
07:40 PM 51.9°F11.1°C 45.6°F7.6°C 79% 5.5 mph W8.9 kmh W 8.6 mph13.8 kmh 29.87 in1011.5 mb 0.00 in0.0 mm 0.00 in0.0 mm 0.29 in7.4 mm
07:45 PM 51.9°F11.1°C 45.6°F7.6°C 79% 6.2 mph WNW10.0 kmh WNW 9.5 mph15.3 kmh 29.87 in1011.5 mb 0.00 in0.0 mm 0.00 in0.0 mm 0.29 in7.4 mm
07:50 PM 51.9°F11.1°C 45.6°F7.6°C 79% 6.7 mph NW10.8 kmh NW 9.5 mph15.3 kmh 29.87 in1011.5 mb 0.00 in0.0 mm 0.00 in0.0 mm 0.29 in7.4 mm
07:55 PM 51.7°F10.9°C 45.1°F7.3°C 78% 5.4 mph NW8.7 kmh NW 8.6 mph13.8 kmh 29.87 in1011.5 mb 0.00 in0.0 mm 0.00 in0.0 mm 0.29 in7.4 mm
08:00 PM 51.7°F10.9°C 45.1°F7.3°C 78% 5.8 mph WNW9.3 kmh WNW 11.3 mph18.2 kmh 29.87 in1011.5 mb 0.00 in0.0 mm 0.00 in0.0 mm 0.29 in7.4 mm
08:05 PM 51.5°F10.8°C 44.6°F7.0°C 77% 8.1 mph WNW13.0 kmh WNW 14.0 mph22.5 kmh 29.87 in1011.5 mb 0.00 in0.0 mm 0.00 in0.0 mm 0.29 in7.4 mm
08:10 PM 51.3°F10.7°C 44.0°F6.7°C 76% 9.2 mph NW14.8 kmh NW 14.0 mph22.5 kmh 29.87 in1011.5 mb 0.00 in0.0 mm 0.00 in0.0 mm 0.29 in7.4 mm
08:15 PM 51.2°F10.7°C 43.9°F6.6°C 76% 8.3 mph WNW13.4 kmh WNW 10.1 mph16.3 kmh 29.87 in1011.5 mb 0.00 in0.0 mm 0.00 in0.0 mm 0.29 in7.4 mm
08:20 PM 51.0°F10.6°C 43.7°F6.5°C 76% 6.6 mph NW10.6 kmh NW 8.3 mph13.4 kmh 29.87 in1011.5 mb 0.00 in0.0 mm 0.00 in0.0 mm 0.29 in7.4 mm
08:25 PM 50.8°F10.4°C 43.5°F6.4°C 76% 6.8 mph NW10.9 kmh NW 11.3 mph18.2 kmh 29.87 in1011.5 mb 0.00 in0.0 mm 0.00 in0.0 mm 0.29 in7.4 mm
08:30 PM 50.5°F10.3°C 43.5°F6.4°C 77% 5.1 mph NW8.2 kmh NW 11.3 mph18.2 kmh 29.87 in1011.5 mb 0.00 in0.0 mm 0.00 in0.0 mm 0.29 in7.4 mm
08:35 PM 50.3°F10.2°C 43.3°F6.3°C 77% 3.9 mph NW6.3 kmh NW 6.5 mph10.5 kmh 29.87 in1011.5 mb 0.00 in0.0 mm 0.00 in0.0 mm 0.29 in7.4 mm
08:40 PM 50.1°F10.1°C 43.2°F6.2°C 77% 4.7 mph NW7.6 kmh NW 7.1 mph11.4 kmh 29.87 in1011.5 mb 0.00 in0.0 mm 0.00 in0.0 mm 0.29 in7.4 mm
08:45 PM 50.1°F10.1°C 43.2°F6.2°C 77% 4.1 mph WNW6.6 kmh WNW 7.1 mph11.4 kmh 29.87 in1011.5 mb 0.00 in0.0 mm 0.00 in0.0 mm 0.29 in7.4 mm
08:50 PM 50.1°F10.1°C 43.5°F6.4°C 78% 3.9 mph WNW6.3 kmh WNW 5.4 mph8.7 kmh 29.87 in1011.5 mb 0.00 in0.0 mm 0.00 in0.0 mm 0.29 in7.4 mm
08:55 PM 49.7°F9.8°C 43.1°F6.2°C 78% 2.0 mph NW3.2 kmh NW 5.4 mph8.7 kmh 29.87 in1011.5 mb 0.00 in0.0 mm 0.00 in0.0 mm 0.29 in7.4 mm
09:00 PM 49.4°F9.7°C 42.8°F6.0°C 78% 1.9 mph NNW3.1 kmh NNW 6.5 mph10.5 kmh 29.87 in1011.5 mb 0.00 in0.0 mm 0.00 in0.0 mm 0.29 in7.4 mm
09:05 PM 49.2°F9.6°C 42.6°F5.9°C 78% 3.1 mph NW5.0 kmh NW 6.5 mph10.5 kmh 29.87 in1011.5 mb 0.00 in0.0 mm 0.00 in0.0 mm 0.29 in7.4 mm
09:10 PM 49.2°F9.6°C 43.0°F6.1°C 79% 3.2 mph NW5.1 kmh NW 5.4 mph8.7 kmh 29.90 in1012.5 mb 0.00 in0.0 mm 0.00 in0.0 mm 0.29 in7.4 mm
09:15 PM 49.0°F9.4°C 42.8°F6.0°C 79% 3.6 mph NW5.8 kmh NW 5.4 mph8.7 kmh 29.90 in1012.5 mb 0.00 in0.0 mm 0.00 in0.0 mm 0.29 in7.4 mm
09:20 PM 49.0°F9.4°C 43.1°F6.2°C 80% 4.0 mph W6.4 kmh W 6.5 mph10.5 kmh 29.90 in1012.5 mb 0.00 in0.0 mm 0.00 in0.0 mm 0.29 in7.4 mm
09:25 PM 49.0°F9.4°C 43.1°F6.2°C 80% 3.4 mph W5.5 kmh W 6.5 mph10.5 kmh 29.87 in1011.5 mb 0.00 in0.0 mm 0.00 in0.0 mm 0.29 in7.4 mm
09:30 PM 49.0°F9.4°C 43.1°F6.2°C 80% 3.4 mph W5.5 kmh W 6.5 mph10.5 kmh 29.87 in1011.5 mb 0.00 in0.0 mm 0.00 in0.0 mm 0.29 in7.4 mm
09:35 PM 49.0°F9.4°C 43.4°F6.3°C 81% 4.5 mph W7.2 kmh W 7.7 mph12.4 kmh 29.87 in1011.5 mb 0.00 in0.0 mm 0.00 in0.0 mm 0.29 in7.4 mm
09:40 PM 49.2°F9.6°C 43.6°F6.4°C 81% 4.7 mph WNW7.6 kmh WNW 7.7 mph12.4 kmh 29.90 in1012.5 mb 0.00 in0.0 mm 0.00 in0.0 mm 0.29 in7.4 mm
09:45 PM 49.2°F9.6°C 43.6°F6.4°C 81% 4.4 mph WNW7.1 kmh WNW 7.4 mph11.9 kmh 29.90 in1012.5 mb 0.00 in0.0 mm 0.00 in0.0 mm 0.29 in7.4 mm
09:50 PM 49.2°F9.6°C 43.6°F6.4°C 81% 4.2 mph WNW6.8 kmh WNW 5.4 mph8.7 kmh 29.90 in1012.5 mb 0.00 in0.0 mm 0.00 in0.0 mm 0.29 in7.4 mm
09:55 PM 49.2°F9.6°C 43.6°F6.4°C 81% 4.5 mph WNW7.2 kmh WNW 6.5 mph10.5 kmh 29.90 in1012.5 mb 0.00 in0.0 mm 0.00 in0.0 mm 0.29 in7.4 mm
10:00 PM 49.2°F9.6°C 43.9°F6.6°C 82% 4.1 mph WNW6.6 kmh WNW 6.5 mph10.5 kmh 29.90 in1012.5 mb 0.00 in0.0 mm 0.00 in0.0 mm 0.29 in7.4 mm
10:05 PM 49.2°F9.6°C 43.9°F6.6°C 82% 5.0 mph W8.0 kmh W 8.3 mph13.4 kmh 29.90 in1012.5 mb 0.00 in0.0 mm 0.00 in0.0 mm 0.29 in7.4 mm
10:10 PM 49.4°F9.7°C 44.1°F6.7°C 82% 5.2 mph W8.4 kmh W 8.3 mph13.4 kmh 29.90 in1012.5 mb 0.00 in0.0 mm 0.00 in0.0 mm 0.29 in7.4 mm
10:15 PM 49.4°F9.7°C 44.1°F6.7°C 82% 5.3 mph WNW8.5 kmh WNW 8.3 mph13.4 kmh 29.90 in1012.5 mb 0.00 in0.0 mm 0.00 in0.0 mm 0.29 in7.4 mm
10:20 PM 49.5°F9.7°C 44.3°F6.8°C 82% 6.4 mph WNW10.3 kmh WNW 8.3 mph13.4 kmh 29.90 in1012.5 mb 0.00 in0.0 mm 0.00 in0.0 mm 0.29 in7.4 mm
10:25 PM 49.5°F9.7°C 44.3°F6.8°C 82% 7.7 mph W12.4 kmh W 9.8 mph15.8 kmh 29.87 in1011.5 mb 0.00 in0.0 mm 0.00 in0.0 mm 0.29 in7.4 mm
10:30 PM 49.7°F9.8°C 44.5°F6.9°C 82% 7.9 mph W12.7 kmh W 9.8 mph15.8 kmh 29.87 in1011.5 mb 0.00 in0.0 mm 0.00 in0.0 mm 0.29 in7.4 mm
10:35 PM 50.1°F10.1°C 44.8°F7.1°C 82% 8.1 mph W13.0 kmh W 11.6 mph18.7 kmh 29.87 in1011.5 mb 0.00 in0.0 mm 0.00 in0.0 mm 0.29 in7.4 mm
10:40 PM 50.3°F10.2°C 45.0°F7.2°C 82% 8.2 mph W13.2 kmh W 11.6 mph18.7 kmh 29.87 in1011.5 mb 0.00 in0.0 mm 0.00 in0.0 mm 0.29 in7.4 mm
10:45 PM 50.3°F10.2°C 45.0°F7.2°C 82% 7.6 mph WNW12.2 kmh WNW 11.3 mph18.2 kmh 29.87 in1011.5 mb 0.00 in0.0 mm 0.00 in0.0 mm 0.29 in7.4 mm
10:50 PM 50.3°F10.2°C 45.0°F7.2°C 82% 6.6 mph WNW10.6 kmh WNW 10.4 mph16.7 kmh 29.87 in1011.5 mb 0.00 in0.0 mm 0.00 in0.0 mm 0.29 in7.4 mm
10:55 PM 50.5°F10.3°C 45.2°F7.3°C 82% 5.3 mph WNW8.5 kmh WNW 8.3 mph13.4 kmh 29.87 in1011.5 mb 0.00 in0.0 mm 0.00 in0.0 mm 0.29 in7.4 mm
11:00 PM 50.5°F10.3°C 45.2°F7.3°C 82% 6.2 mph WNW10.0 kmh WNW 11.3 mph18.2 kmh 29.87 in1011.5 mb 0.00 in0.0 mm 0.00 in0.0 mm 0.29 in7.4 mm
11:05 PM 50.5°F10.3°C 44.8°F7.1°C 81% 7.5 mph WNW12.1 kmh WNW 13.1 mph21.1 kmh 29.87 in1011.5 mb 0.00 in0.0 mm 0.00 in0.0 mm 0.29 in7.4 mm
11:10 PM 50.6°F10.3°C 45.0°F7.2°C 81% 8.3 mph WNW13.4 kmh WNW 13.1 mph21.1 kmh 29.90 in1012.5 mb 0.00 in0.0 mm 0.00 in0.0 mm 0.29 in7.4 mm
11:15 PM 50.8°F10.4°C 45.2°F7.3°C 81% 8.4 mph WNW13.5 kmh WNW 11.6 mph18.7 kmh 29.90 in1012.5 mb 0.00 in0.0 mm 0.00 in0.0 mm 0.29 in7.4 mm
11:20 PM 50.8°F10.4°C 44.9°F7.2°C 80% 8.3 mph WNW13.4 kmh WNW 11.3 mph18.2 kmh 29.90 in1012.5 mb 0.00 in0.0 mm 0.00 in0.0 mm 0.29 in7.4 mm
11:25 PM 50.8°F10.4°C 44.9°F7.2°C 80% 7.3 mph NW11.7 kmh NW 11.3 mph18.2 kmh 29.90 in1012.5 mb 0.00 in0.0 mm 0.00 in0.0 mm 0.29 in7.4 mm
11:30 PM 50.8°F10.4°C 44.9°F7.2°C 80% 5.2 mph WNW8.4 kmh WNW 10.4 mph16.7 kmh 29.90 in1012.5 mb 0.00 in0.0 mm 0.00 in0.0 mm 0.29 in7.4 mm
11:35 PM 50.8°F10.4°C 44.9°F7.2°C 80% 4.2 mph WNW6.8 kmh WNW 7.4 mph11.9 kmh 29.90 in1012.5 mb 0.00 in0.0 mm 0.00 in0.0 mm 0.29 in7.4 mm
11:40 PM 50.8°F10.4°C 44.9°F7.2°C 80% 5.0 mph NW8.0 kmh NW 7.7 mph12.4 kmh 29.90 in1012.5 mb 0.00 in0.0 mm 0.00 in0.0 mm 0.29 in7.4 mm
11:45 PM 50.6°F10.3°C 44.7°F7.1°C 80% 6.0 mph WNW9.7 kmh WNW 8.3 mph13.4 kmh 29.90 in1012.5 mb 0.00 in0.0 mm 0.00 in0.0 mm 0.29 in7.4 mm
11:50 PM 50.6°F10.3°C 44.4°F6.9°C 79% 6.4 mph NW10.3 kmh NW 9.5 mph15.3 kmh 29.90 in1012.5 mb 0.00 in0.0 mm 0.00 in0.0 mm 0.29 in7.4 mm
11:55 PM 50.5°F10.3°C 44.5°F6.9°C 80% 6.2 mph WNW10.0 kmh WNW 9.5 mph15.3 kmh 29.90 in1012.5 mb 0.00 in0.0 mm 0.00 in0.0 mm 0.29 in7.4 mm